Time;durP1;ratioP1;P1;durP2;ratioP2;P2;SDS_P1;SDS_P2;PMS_P1;PMS_P2;Temp;Humidity;BMP_temperature;BMP_pressure;BME280_temperature;BME280_humidity;BME280_pressure;Samples;Min_cycle;Max_cycle;Signal;HPM_P1;HPM_P2
2023/10/01 00:01:14;;;;;;;4.67;3.57;;;25.20;53.30;;;;;;5053986;28;20494;-75
2023/10/01 00:03:43;;;;;;;4.07;3.67;;;25.10;53.30;;;;;;5044180;28;20447;-75
2023/10/01 00:06:11;;;;;;;3.70;3.40;;;25.10;53.20;;;;;;5033490;28;20443;-76
2023/10/01 00:08:39;;;;;;;5.23;3.87;;;25.10;53.30;;;;;;5033589;28;20454;-76
2023/10/01 00:11:09;;;;;;;4.90;3.73;;;25.10;53.20;;;;;;5034112;28;20458;-75
2023/10/01 00:13:38;;;;;;;6.13;3.67;;;25.10;53.30;;;;;;5037899;28;20475;-75
2023/10/01 00:16:06;;;;;;;4.90;3.60;;;25.10;53.10;;;;;;5026441;28;20418;-76
2023/10/01 00:18:36;;;;;;;4.10;3.60;;;25.10;53.20;;;;;;5038205;28;20882;-76
2023/10/01 00:21:04;;;;;;;7.03;4.20;;;25.00;53.20;;;;;;5025835;28;20438;-77
2023/10/01 00:23:33;;;;;;;4.10;3.67;;;25.00;53.30;;;;;;5028355;28;20448;-78
2023/10/01 00:26:01;;;;;;;5.80;3.80;;;25.00;53.20;;;;;;5024915;28;20451;-76
2023/10/01 00:28:29;;;;;;;4.13;3.73;;;25.00;53.30;;;;;;5019640;28;20485;-75
2023/10/01 00:30:57;;;;;;;6.30;4.07;;;25.00;53.30;;;;;;5014291;28;20423;-76
2023/10/01 00:33:26;;;;;;;4.73;3.53;;;25.00;53.30;;;;;;5014125;28;20419;-76
2023/10/01 00:35:56;;;;;;;5.77;4.33;;;25.00;53.40;;;;;;5014397;28;20440;-76
2023/10/01 00:38:26;;;;;;;7.07;4.30;;;25.00;53.40;;;;;;5012900;28;20539;-76
2023/10/01 00:40:54;;;;;;;5.90;3.93;;;25.00;53.50;;;;;;5021173;28;20523;-76
2023/10/01 00:43:25;;;;;;;7.13;4.60;;;25.00;53.40;;;;;;5017731;28;20507;-76
2023/10/01 00:45:53;;;;;;;6.10;3.80;;;25.00;53.40;;;;;;5022523;28;20531;-77
2023/10/01 00:48:23;;;;;;;4.70;4.17;;;25.00;53.50;;;;;;5012798;28;20567;-77
2023/10/01 00:50:51;;;;;;;6.30;3.80;;;25.00;53.60;;;;;;5020790;28;20440;-77
2023/10/01 00:53:21;;;;;;;5.00;4.00;;;25.00;53.50;;;;;;5012772;28;20444;-75
2023/10/01 00:55:51;;;;;;;5.87;3.80;;;25.00;53.40;;;;;;5012410;28;20445;-75
2023/10/01 00:58:19;;;;;;;7.50;3.90;;;24.90;53.50;;;;;;5026833;28;20440;-78
2023/10/01 01:00:49;;;;;;;5.47;4.00;;;24.90;53.50;;;;;;5051125;23;20532;-78
2023/10/01 01:03:21;;;;;;;10.53;4.03;;;24.90;53.60;;;;;;5030704;28;20450;-78
2023/10/01 01:06:12;;;;;;;5.10;3.53;;;24.90;53.70;;;;;;5039319;28;20409;-79
2023/10/01 01:08:47;;;;;;;5.57;3.87;;;24.90;53.70;;;;;;5029817;28;20513;-80
2023/10/01 01:11:16;;;;;;;7.30;4.37;;;24.90;53.70;;;;;;5010837;28;20436;-79
2023/10/01 01:13:44;;;;;;;4.60;3.97;;;24.90;53.70;;;;;;5009412;28;20424;-78
2023/10/01 01:16:12;;;;;;;7.83;3.70;;;24.80;53.70;;;;;;5001236;28;20449;-78
2023/10/01 01:18:42;;;;;;;7.70;3.83;;;24.80;53.80;;;;;;4992656;28;20443;-78
2023/10/01 01:21:13;;;;;;;5.07;4.03;;;24.80;53.90;;;;;;5000312;28;20449;-78
2023/10/01 01:23:45;;;;;;;4.43;4.00;;;24.80;53.80;;;;;;4999797;28;20476;-81
2023/10/01 01:26:14;;;;;;;4.60;3.80;;;24.80;53.80;;;;;;5003792;28;20502;-79
2023/10/01 01:28:42;;;;;;;9.30;4.40;;;24.80;53.80;;;;;;5011657;28;20531;-79
2023/10/01 01:31:10;;;;;;;5.80;4.00;;;24.80;53.80;;;;;;5008310;28;20404;-79
2023/10/01 01:33:44;;;;;;;4.87;4.30;;;24.80;53.80;;;;;;4997540;28;20459;-79
2023/10/01 01:36:13;;;;;;;4.20;3.80;;;24.80;53.90;;;;;;4992085;28;20506;-79
2023/10/01 01:38:49;;;;;;;5.47;4.20;;;24.80;53.90;;;;;;5007992;28;20527;-78
2023/10/01 01:41:19;;;;;;;5.40;4.17;;;24.80;53.80;;;;;;5003621;28;20511;-79
2023/10/01 01:43:50;;;;;;;7.13;4.30;;;24.70;53.90;;;;;;4999257;28;20493;-77
2023/10/01 01:46:18;;;;;;;4.13;3.70;;;24.70;54.00;;;;;;4995779;28;20414;-78
2023/10/01 01:48:52;;;;;;;6.63;4.13;;;24.70;53.90;;;;;;5011355;28;20411;-78
2023/10/01 01:51:21;;;;;;;6.17;3.73;;;24.70;53.90;;;;;;5008797;28;20490;-78
2023/10/01 01:53:52;;;;;;;7.63;4.20;;;24.70;54.00;;;;;;5008550;28;21022;-79
2023/10/01 01:56:21;;;;;;;5.10;3.63;;;24.70;54.00;;;;;;5011783;28;20468;-77
2023/10/01 01:58:51;;;;;;;5.30;3.57;;;24.70;54.00;;;;;;5010914;28;20444;-78
2023/10/01 02:01:23;;;;;;;13.40;4.30;;;24.70;54.10;;;;;;5007033;28;20553;-79
2023/10/01 02:03:53;;;;;;;5.37;3.97;;;24.60;53.90;;;;;;4999711;28;20480;-77
2023/10/01 02:06:28;;;;;;;3.60;3.30;;;24.60;53.90;;;;;;5006471;28;20449;-80
2023/10/01 02:08:58;;;;;;;6.23;4.10;;;24.60;54.00;;;;;;5007253;28;20482;-77
2023/10/01 02:11:29;;;;;;;10.37;4.10;;;24.60;54.10;;;;;;5010967;28;20933;-78
2023/10/01 02:13:59;;;;;;;5.40;3.77;;;24.60;54.00;;;;;;5001829;28;20509;-78
2023/10/01 02:16:37;;;;;;;4.57;4.17;;;24.60;54.00;;;;;;4991683;28;20452;-78
2023/10/01 02:19:14;;;;;;;5.17;3.77;;;24.50;54.10;;;;;;4991635;28;20480;-78
2023/10/01 02:21:49;;;;;;;4.13;3.67;;;24.60;54.20;;;;;;5002092;28;20623;-80
2023/10/01 02:24:22;;;;;;;4.73;4.23;;;24.50;54.00;;;;;;5003093;28;20475;-77
2023/10/01 02:26:56;;;;;;;5.47;3.80;;;24.50;54.00;;;;;;5007118;28;20459;-78
2023/10/01 02:29:25;;;;;;;4.50;3.80;;;24.50;54.10;;;;;;4999639;28;20491;-78
2023/10/01 02:31:56;;;;;;;5.63;4.00;;;24.50;54.20;;;;;;5014540;28;20444;-80
2023/10/01 02:34:26;;;;;;;4.20;3.53;;;24.50;54.20;;;;;;5014970;28;20440;-78
2023/10/01 02:36:55;;;;;;;4.57;4.00;;;24.50;54.10;;;;;;5014648;28;20440;-79
2023/10/01 02:39:27;;;;;;;6.20;4.37;;;24.50;54.40;;;;;;5002530;28;20453;-78
2023/10/01 02:42:10;;;;;;;4.67;3.80;;;24.40;54.10;;;;;;5001307;28;20498;-78
2023/10/01 02:44:40;;;;;;;4.93;3.60;;;24.40;54.10;;;;;;5012567;28;20849;-80
2023/10/01 02:47:16;;;;;;;4.40;4.00;;;24.40;54.30;;;;;;5014374;28;20436;-78
2023/10/01 02:49:49;;;;;;;5.40;3.40;;;24.40;54.20;;;;;;5007798;28;20468;-80
2023/10/01 02:52:18;;;;;;;6.13;3.83;;;24.40;54.20;;;;;;5005973;28;20829;-78
2023/10/01 02:54:47;;;;;;;7.90;4.10;;;24.30;54.30;;;;;;5014512;28;20423;-78
2023/10/01 02:57:24;;;;;;;5.90;4.10;;;24.40;54.40;;;;;;5014404;28;20533;-78
2023/10/01 03:00:20;;;;;;;6.20;3.87;;;24.30;54.30;;;;;;4998114;28;20523;-80
2023/10/01 03:02:53;;;;;;;4.90;4.17;;;24.30;54.20;;;;;;5006132;28;20472;-78
2023/10/01 03:05:28;;;;;;;11.00;7.57;;;24.30;54.40;;;;;;5006237;28;20472;-79
2023/10/01 03:08:03;;;;;;;15.80;11.33;;;24.30;54.40;;;;;;4994627;28;20454;-78
2023/10/01 03:10:37;;;;;;;19.40;12.07;;;24.30;54.40;;;;;;5007538;28;20543;-78
2023/10/01 03:13:14;;;;;;;17.17;11.17;;;24.30;54.50;;;;;;4996558;28;20461;-78
2023/10/01 03:16:37;;;;;;;21.20;14.13;;;24.30;54.50;;;;;;5002733;28;20441;-77
2023/10/01 03:18:34;;;;;;;24.30;15.50;;;24.20;54.30;;;;;;5004699;28;20460;-78
2023/10/01 03:21:17;;;;;;;25.90;16.27;;;24.20;54.40;;;;;;5013703;28;20526;-78
2023/10/01 03:23:51;;;;;;;24.60;16.43;;;24.20;54.50;;;;;;5013662;28;20575;-78
2023/10/01 03:26:25;;;;;;;25.43;16.60;;;24.10;54.50;;;;;;5013541;28;20448;-78
2023/10/01 03:31:43;;;;;;;30.67;17.83;;;24.20;54.70;;;;;;5012672;28;20510;-76
2023/10/01 03:34:26;;;;;;;26.23;17.30;;;24.10;54.60;;;;;;5013564;28;20415;-80
2023/10/01 03:36:58;;;;;;;24.87;16.57;;;24.10;54.70;;;;;;5009831;28;20452;-78
2023/10/01 03:39:26;;;;;;;26.73;17.90;;;24.10;54.60;;;;;;5001638;28;21010;-77
2023/10/01 03:42:10;;;;;;;25.00;16.90;;;24.10;54.60;;;;;;5001934;28;20441;-78
2023/10/01 03:47:24;;;;;;;27.47;17.60;;;24.10;54.70;;;;;;5012673;28;20479;-78
2023/10/01 03:49:54;;;;;;;28.63;17.90;;;24.10;54.70;;;;;;5006199;28;20512;-81
2023/10/01 03:52:22;;;;;;;28.23;18.23;;;24.00;54.70;;;;;;5006378;28;20540;-78
2023/10/01 03:54:54;;;;;;;27.47;18.07;;;24.00;54.80;;;;;;4993903;28;20442;-78
2023/10/01 03:57:23;;;;;;;25.53;16.33;;;24.00;54.80;;;;;;4993994;28;20453;-83
2023/10/01 03:59:52;;;;;;;23.50;16.30;;;24.00;54.70;;;;;;4993484;28;20556;-78
2023/10/01 04:02:43;;;;;;;25.97;17.23;;;24.00;54.90;;;;;;4993491;28;20447;-80
2023/10/01 04:05:21;;;;;;;26.23;16.40;;;24.00;54.80;;;;;;4988557;28;20484;-78
2023/10/01 04:07:49;;;;;;;23.90;16.43;;;23.90;54.80;;;;;;5002127;28;20981;-78
2023/10/01 04:10:21;;;;;;;23.27;15.87;;;23.90;54.80;;;;;;4994664;28;20453;-77
2023/10/01 04:12:50;;;;;;;25.30;16.10;;;23.90;55.00;;;;;;5001713;28;20425;-79
2023/10/01 04:15:27;;;;;;;24.03;15.67;;;23.90;54.80;;;;;;5001299;28;20485;-78
2023/10/01 04:18:19;;;;;;;22.40;15.80;;;23.90;55.00;;;;;;4993143;28;20448;-78
2023/10/01 04:20:49;;;;;;;23.93;15.20;;;23.90;54.90;;;;;;5007500;28;20567;-81
2023/10/01 04:23:24;;;;;;;22.97;15.80;;;23.90;55.00;;;;;;5010442;28;20480;-78
2023/10/01 04:25:52;;;;;;;24.27;14.93;;;23.80;54.80;;;;;;5003138;28;20502;-79
2023/10/01 04:28:23;;;;;;;20.60;14.20;;;23.80;55.00;;;;;;5002187;28;20477;-79
2023/10/01 04:30:52;;;;;;;20.67;13.90;;;23.80;54.90;;;;;;4993153;28;20443;-77
2023/10/01 04:33:23;;;;;;;17.30;13.13;;;23.80;54.90;;;;;;4993139;28;20536;-79
2023/10/01 04:35:55;;;;;;;18.53;13.53;;;23.80;54.90;;;;;;4993021;28;20499;-77
2023/10/01 04:38:26;;;;;;;19.03;13.33;;;23.80;55.00;;;;;;4992855;28;20476;-77
2023/10/01 04:40:54;;;;;;;18.60;13.10;;;23.80;54.90;;;;;;4993107;28;20515;-76
2023/10/01 04:43:26;;;;;;;17.27;12.13;;;23.80;55.00;;;;;;5004662;28;20463;-77
2023/10/01 04:45:54;;;;;;;18.80;12.73;;;23.80;55.00;;;;;;5005532;28;20495;-76
2023/10/01 04:48:23;;;;;;;18.80;13.07;;;23.80;55.10;;;;;;5000639;28;20475;-78
2023/10/01 04:50:53;;;;;;;18.10;12.87;;;23.70;54.90;;;;;;4992122;28;20472;-80
2023/10/01 04:53:22;;;;;;;17.77;12.17;;;23.80;55.00;;;;;;4999722;28;20436;-78
2023/10/01 04:56:00;;;;;;;21.20;14.07;;;23.70;55.00;;;;;;4992358;28;20437;-79
2023/10/01 04:58:32;;;;;;;16.27;11.50;;;23.70;54.90;;;;;;4997392;28;20459;-77
2023/10/01 05:01:01;;;;;;;15.67;11.37;;;23.70;54.90;;;;;;4996585;28;20547;-76
2023/10/01 05:03:39;;;;;;;19.50;12.90;;;23.70;55.10;;;;;;5003643;28;20452;-79
2023/10/01 05:06:09;;;;;;;16.33;12.03;;;23.70;55.00;;;;;;5011534;28;20448;-80
2023/10/01 05:08:40;;;;;;;16.43;11.30;;;23.70;54.90;;;;;;4991076;28;20456;-78
2023/10/01 05:11:10;;;;;;;16.67;12.10;;;23.70;54.90;;;;;;5003853;28;20486;-79
2023/10/01 05:13:40;;;;;;;15.87;11.07;;;23.70;55.00;;;;;;4999689;28;20532;-78
2023/10/01 05:16:12;;;;;;;14.77;11.13;;;23.70;55.00;;;;;;5002247;28;20487;-75
2023/10/01 05:18:42;;;;;;;16.20;11.03;;;23.70;54.90;;;;;;5011479;28;20536;-77
2023/10/01 05:21:12;;;;;;;13.93;10.27;;;23.70;55.00;;;;;;5011622;28;20549;-76
2023/10/01 05:23:40;;;;;;;15.40;10.77;;;23.70;55.00;;;;;;4991817;28;20449;-77
2023/10/01 05:26:08;;;;;;;14.70;10.80;;;23.70;54.90;;;;;;5000613;28;20445;-75
2023/10/01 05:28:40;;;;;;;14.30;10.30;;;23.70;54.90;;;;;;5003867;28;20433;-77
2023/10/01 05:31:12;;;;;;;16.40;10.53;;;23.70;54.90;;;;;;5003882;28;20888;-80
2023/10/01 05:33:45;;;;;;;12.60;9.77;;;23.70;55.00;;;;;;5010838;28;20527;-76
2023/10/01 05:36:16;;;;;;;12.77;9.40;;;23.70;54.90;;;;;;4994931;28;20492;-77
2023/10/01 05:38:44;;;;;;;13.20;8.97;;;23.70;54.90;;;;;;4996214;28;20433;-81
2023/10/01 05:41:15;;;;;;;12.60;9.83;;;23.70;55.00;;;;;;5002576;28;20441;-79
2023/10/01 05:43:50;;;;;;;13.97;9.53;;;23.70;54.80;;;;;;4996700;28;20425;-81
2023/10/01 05:46:22;;;;;;;14.53;9.83;;;23.70;55.40;;;;;;5010703;28;20494;-80
2023/10/01 05:48:51;;;;;;;13.23;9.40;;;23.70;54.80;;;;;;4996941;28;20560;-79
2023/10/01 05:51:19;;;;;;;13.03;9.57;;;23.70;55.00;;;;;;4991860;28;20449;-81
2023/10/01 05:53:48;;;;;;;14.20;8.63;;;23.70;55.00;;;;;;4992031;28;20469;-78
2023/10/01 05:56:17;;;;;;;13.07;9.17;;;23.70;55.00;;;;;;5003514;28;20444;-78
2023/10/01 05:58:45;;;;;;;12.80;9.23;;;23.70;54.80;;;;;;4995885;28;20450;-78
2023/10/01 06:01:16;;;;;;;12.33;9.17;;;23.70;55.00;;;;;;4996049;28;20536;-81
2023/10/01 06:03:48;;;;;;;14.27;8.53;;;23.70;54.90;;;;;;4996031;28;20496;-79
2023/10/01 06:06:24;;;;;;;13.30;8.57;;;23.70;54.80;;;;;;5006543;28;20467;-77
2023/10/01 06:08:58;;;;;;;12.23;8.93;;;23.70;54.90;;;;;;4995457;28;20483;-78
2023/10/01 06:11:39;;;;;;;11.67;8.00;;;23.70;54.80;;;;;;4995604;28;20483;-78
2023/10/01 06:14:08;;;;;;;14.40;9.80;;;23.70;54.70;;;;;;4995698;28;20775;-77
2023/10/01 06:16:38;;;;;;;10.27;8.43;;;23.70;55.00;;;;;;4995650;28;20453;-75
2023/10/01 06:19:11;;;;;;;10.43;7.80;;;23.70;55.00;;;;;;4995544;28;20544;-78
2023/10/01 06:21:41;;;;;;;9.83;7.70;;;23.70;54.80;;;;;;4997427;28;20603;-77
2023/10/01 06:24:10;;;;;;;12.20;8.53;;;23.70;54.70;;;;;;4999330;28;20445;-77
2023/10/01 06:26:42;;;;;;;9.73;7.40;;;23.70;54.70;;;;;;5003645;28;20438;-80
2023/10/01 06:29:11;;;;;;;9.70;8.00;;;23.70;54.80;;;;;;4995010;28;20462;-78
2023/10/01 06:31:52;;;;;;;9.10;7.13;;;23.80;54.80;;;;;;4995502;28;20468;-77
2023/10/01 06:34:23;;;;;;;10.63;7.83;;;23.80;54.80;;;;;;4995080;28;20479;-78
2023/10/01 06:36:56;;;;;;;10.73;7.87;;;23.80;54.90;;;;;;5003182;28;20456;-74
2023/10/01 06:39:24;;;;;;;9.13;7.30;;;23.80;54.70;;;;;;4997447;28;20472;-75
2023/10/01 06:41:53;;;;;;;10.40;7.63;;;23.80;54.80;;;;;;5010849;28;20559;-78
2023/10/01 06:44:22;;;;;;;9.33;7.10;;;23.80;54.80;;;;;;5014369;28;20480;-78
2023/10/01 06:46:50;;;;;;;10.10;7.40;;;23.80;54.80;;;;;;5014496;28;20437;-77
2023/10/01 06:49:19;;;;;;;8.77;6.67;;;23.80;54.70;;;;;;5014197;28;20541;-77
2023/10/01 06:51:50;;;;;;;9.57;7.07;;;23.80;54.70;;;;;;5014311;28;20456;-77
2023/10/01 06:54:18;;;;;;;9.33;6.97;;;23.80;54.60;;;;;;5014499;28;20455;-78
2023/10/01 06:56:47;;;;;;;9.57;7.70;;;23.80;54.60;;;;;;5012108;28;20456;-77
2023/10/01 06:59:17;;;;;;;8.40;6.70;;;23.80;54.70;;;;;;5014657;28;20476;-77
2023/10/01 07:01:49;;;;;;;7.53;6.60;;;23.80;54.70;;;;;;5014331;28;20444;-77
2023/10/01 07:04:19;;;;;;;8.13;6.77;;;23.80;54.60;;;;;;5014124;28;20437;-79
2023/10/01 07:06:51;;;;;;;7.77;6.63;;;23.80;54.70;;;;;;5005406;28;20415;-77
2023/10/01 07:09:28;;;;;;;10.20;7.53;;;23.80;54.70;;;;;;5014042;28;20599;-80
2023/10/01 07:11:57;;;;;;;8.07;6.30;;;23.80;54.60;;;;;;5013939;28;20522;-77
2023/10/01 07:14:38;;;;;;;11.20;7.27;;;23.80;54.60;;;;;;5009430;28;20543;-78
2023/10/01 07:17:09;;;;;;;7.40;6.40;;;23.80;54.50;;;;;;5014118;28;20498;-76
2023/10/01 07:19:38;;;;;;;8.70;6.33;;;23.80;54.70;;;;;;5013532;28;20531;-80
2023/10/01 07:22:08;;;;;;;7.47;5.80;;;23.90;54.60;;;;;;5008980;28;20571;-81
2023/10/01 07:24:38;;;;;;;13.80;6.67;;;23.80;54.70;;;;;;5014050;28;20455;-75
2023/10/01 07:27:06;;;;;;;8.03;6.53;;;23.90;55.30;;;;;;5013424;28;20535;-78
2023/10/01 07:29:35;;;;;;;6.30;5.53;;;23.90;54.70;;;;;;5013528;28;20460;-77
2023/10/01 07:32:06;;;;;;;8.40;6.80;;;23.90;54.60;;;;;;5011261;28;20460;-77
2023/10/01 07:34:35;;;;;;;6.90;6.20;;;23.90;54.60;;;;;;5013307;28;20460;-80
2023/10/01 07:37:04;;;;;;;8.37;6.43;;;23.90;54.80;;;;;;5010194;28;21013;-79
2023/10/01 07:39:36;;;;;;;6.90;5.77;;;24.00;54.60;;;;;;5005862;28;20459;-78
2023/10/01 07:42:05;;;;;;;7.13;6.20;;;24.00;54.50;;;;;;5004731;28;20431;-77
2023/10/01 07:44:36;;;;;;;8.77;6.07;;;24.00;54.80;;;;;;5003377;28;20444;-75
2023/10/01 07:47:04;;;;;;;11.57;6.63;;;24.00;54.60;;;;;;5000699;28;20469;-78
2023/10/01 07:49:46;;;;;;;8.20;6.53;;;24.00;54.50;;;;;;5002162;28;20476;-78
2023/10/01 07:52:17;;;;;;;6.60;6.00;;;24.00;54.60;;;;;;5005560;28;20423;-81
2023/10/01 07:54:49;;;;;;;7.80;5.97;;;24.10;54.80;;;;;;5004192;28;20416;-82
2023/10/01 07:57:18;;;;;;;7.20;6.30;;;24.10;54.60;;;;;;5001374;28;20469;-80
2023/10/01 07:59:52;;;;;;;8.23;5.50;;;24.10;54.70;;;;;;5004132;28;20551;-79
2023/10/01 08:02:21;;;;;;;8.00;6.10;;;24.10;54.70;;;;;;5009020;28;20527;-77
2023/10/01 08:04:58;;;;;;;6.20;5.53;;;24.10;54.70;;;;;;5005008;28;20441;-75
2023/10/01 08:07:43;;;;;;;7.87;6.00;;;24.20;54.70;;;;;;5009623;28;20479;-77
2023/10/01 08:10:18;;;;;;;8.90;6.40;;;24.20;54.60;;;;;;5007546;28;20462;-77
2023/10/01 08:15:38;;;;;;;9.50;6.43;;;24.20;54.60;;;;;;5005030;28;20424;-77
2023/10/01 08:18:34;;;;;;;7.60;6.20;;;24.20;54.60;;;;;;5004296;28;20922;-77
2023/10/01 08:21:04;;;;;;;6.90;6.20;;;24.20;54.60;;;;;;4999700;28;20582;-77
2023/10/01 08:23:33;;;;;;;8.00;6.20;;;24.30;54.60;;;;;;5004951;28;20522;-77
2023/10/01 08:26:41;;;;;;;8.87;5.67;;;24.30;54.50;;;;;;5004073;28;20472;-77
2023/10/01 08:28:57;;;;;;;7.07;5.90;;;24.30;54.70;;;;;;5000674;28;20492;-78
2023/10/01 08:34:27;;;;;;;8.50;5.93;;;24.30;54.50;;;;;;5006154;28;20436;-77
2023/10/01 08:36:55;;;;;;;6.97;6.00;;;24.30;54.60;;;;;;5006688;28;20419;-77
2023/10/01 08:39:47;;;;;;;6.93;5.63;;;24.30;54.60;;;;;;5012061;28;20518;-77
2023/10/01 08:42:17;;;;;;;8.33;6.10;;;24.40;54.50;;;;;;5000088;28;20485;-77
2023/10/01 08:44:48;;;;;;;8.07;5.70;;;24.30;54.60;;;;;;5003105;28;20446;-77
2023/10/01 08:47:27;;;;;;;6.47;5.60;;;24.40;54.80;;;;;;5003779;28;20506;-77
2023/10/01 08:50:15;;;;;;;7.57;5.90;;;24.40;54.70;;;;;;5008510;28;20460;-77
2023/10/01 08:52:52;;;;;;;7.00;5.17;;;24.40;54.60;;;;;;5008346;28;20500;-77
2023/10/01 08:55:22;;;;;;;7.17;5.90;;;24.40;54.50;;;;;;5012806;28;20440;-79
2023/10/01 08:57:53;;;;;;;6.90;6.07;;;24.40;54.60;;;;;;5010052;28;20456;-78
2023/10/01 09:00:24;;;;;;;6.80;5.70;;;24.60;54.60;;;;;;5012263;28;20521;-80
2023/10/01 09:02:53;;;;;;;7.50;6.00;;;24.60;54.50;;;;;;5015263;28;20508;-77
2023/10/01 09:05:24;;;;;;;10.10;6.03;;;24.70;54.30;;;;;;5005504;28;20447;-79
2023/10/01 09:08:15;;;;;;;8.10;5.60;;;24.70;54.40;;;;;;5008343;28;20452;-77
2023/10/01 09:10:53;;;;;;;6.33;5.23;;;24.70;54.20;;;;;;5003536;28;20461;-78
2023/10/01 09:13:23;;;;;;;6.13;5.47;;;24.80;54.50;;;;;;5002984;28;20419;-77
2023/10/01 09:15:55;;;;;;;7.20;5.33;;;24.80;54.40;;;;;;5007677;28;20534;-77
2023/10/01 09:18:24;;;;;;;6.40;5.13;;;24.70;54.40;;;;;;5012052;28;20456;-77
2023/10/01 09:21:08;;;;;;;18.83;10.37;;;24.80;54.50;;;;;;5009681;28;20463;-79
2023/10/01 09:23:54;;;;;;;18.77;10.37;;;24.20;56.00;;;;;;5011068;28;20807;-79
2023/10/01 09:26:44;;;;;;;21.13;11.97;;;22.80;60.80;;;;;;5006635;28;20473;-79
2023/10/01 09:29:23;;;;;;;24.57;12.33;;;22.50;63.60;;;;;;5000107;28;20457;-80
2023/10/01 09:31:56;;;;;;;25.00;12.70;;;21.90;65.20;;;;;;5007661;28;20458;-82
2023/10/01 09:34:35;;;;;;;32.53;12.47;;;21.50;68.50;;;;;;5009134;28;20460;-82
2023/10/01 09:37:06;;;;;;;22.17;11.20;;;21.30;70.00;;;;;;5006255;28;20531;-83
2023/10/01 09:39:42;;;;;;;23.63;12.53;;;21.10;71.80;;;;;;5004094;28;20804;-80
2023/10/01 09:42:24;;;;;;;20.40;10.40;;;21.10;72.90;;;;;;5011199;28;20440;-82
2023/10/01 09:44:55;;;;;;;27.13;12.37;;;21.00;73.50;;;;;;5003777;28;20441;-76
2023/10/01 09:47:24;;;;;;;22.17;12.43;;;20.30;79.10;;;;;;5013073;28;20504;-79
2023/10/01 09:49:53;;;;;;;29.53;12.70;;;20.50;80.00;;;;;;5011793;28;20498;-79
2023/10/01 09:52:30;;;;;;;27.30;12.63;;;20.50;79.30;;;;;;5016502;28;20836;-79
2023/10/01 09:55:02;;;;;;;24.97;12.83;;;19.90;85.30;;;;;;5017926;28;20512;-81
2023/10/01 09:57:34;;;;;;;24.10;11.03;;;20.00;87.80;;;;;;5024571;28;20412;-83
2023/10/01 10:00:18;;;;;;;19.70;10.57;;;20.10;90.60;;;;;;5020186;28;20468;-81
2023/10/01 10:02:52;;;;;;;22.93;11.63;;;20.70;90.30;;;;;;5015563;28;20494;-83
2023/10/01 10:05:26;;;;;;;20.17;11.07;;;21.00;86.40;;;;;;5015691;28;20490;-79
2023/10/01 10:07:54;;;;;;;22.37;11.67;;;20.50;89.10;;;;;;5017237;28;20511;-81
2023/10/01 10:10:26;;;;;;;27.10;12.33;;;20.40;91.90;;;;;;5016857;28;20465;-80
2023/10/01 10:12:56;;;;;;;29.70;12.00;;;20.40;91.20;;;;;;5014712;28;20449;-82
2023/10/01 10:15:57;;;;;;;22.17;11.40;;;20.10;91.70;;;;;;5015237;28;20444;-78
2023/10/01 10:18:28;;;;;;;23.50;11.70;;;19.80;95.30;;;;;;5016227;28;20444;-79
2023/10/01 10:21:00;;;;;;;22.60;10.70;;;19.90;95.50;;;;;;5023270;28;20492;-81
2023/10/01 10:23:32;;;;;;;22.20;10.10;;;20.30;96.30;;;;;;5010762;28;20516;-77
2023/10/01 10:26:15;;;;;;;18.73;8.97;;;20.70;98.10;;;;;;5025866;28;20452;-77
2023/10/01 10:28:53;;;;;;;21.13;7.90;;;21.60;95.10;;;;;;5020974;28;20466;-78
2023/10/01 10:31:30;;;;;;;16.67;7.10;;;22.40;92.30;;;;;;5025705;28;20452;-78
2023/10/01 10:34:22;;;;;;;17.13;7.67;;;23.00;89.50;;;;;;5026030;28;20467;-80
2023/10/01 10:36:58;;;;;;;12.53;5.83;;;23.50;85.10;;;;;;5018617;28;20511;-78
2023/10/01 10:40:02;;;;;;;22.13;8.20;;;23.90;81.40;;;;;;5018785;28;20475;-77
2023/10/01 10:42:33;;;;;;;13.57;6.80;;;24.20;78.30;;;;;;5021516;28;20414;-77
2023/10/01 10:45:19;;;;;;;15.23;5.60;;;24.40;76.30;;;;;;5019717;28;20411;-77
2023/10/01 10:47:59;;;;;;;13.20;6.33;;;24.70;74.10;;;;;;5021678;28;20486;-79
2023/10/01 10:50:47;;;;;;;8.33;6.23;;;24.80;72.70;;;;;;5018636;28;20452;-78
2023/10/01 10:53:19;;;;;;;10.93;6.57;;;25.00;71.70;;;;;;5017629;28;20507;-82
2023/10/01 10:56:00;;;;;;;12.33;6.10;;;25.20;70.70;;;;;;5014457;28;20460;-79
2023/10/01 10:58:31;;;;;;;20.23;6.57;;;25.30;69.90;;;;;;5014963;28;20452;-79
2023/10/01 11:01:15;;;;;;;8.90;6.40;;;25.40;69.00;;;;;;5017452;28;20472;-79
2023/10/01 11:03:48;;;;;;;11.27;6.30;;;25.60;68.60;;;;;;5015759;28;20448;-79
2023/10/01 11:06:17;;;;;;;16.20;7.03;;;25.70;67.60;;;;;;5015511;28;20481;-79
2023/10/01 11:08:50;;;;;;;13.70;6.13;;;25.70;67.10;;;;;;5014508;28;20468;-78
2023/10/01 11:11:25;;;;;;;12.73;6.33;;;25.90;66.70;;;;;;5014155;28;20415;-79
2023/10/01 11:14:15;;;;;;;10.40;5.80;;;26.00;66.00;;;;;;5005223;28;20448;-79
2023/10/01 11:16:46;;;;;;;8.93;6.23;;;26.20;65.40;;;;;;5012370;28;20526;-79
2023/10/01 11:19:17;;;;;;;11.97;5.53;;;26.40;64.40;;;;;;5011613;28;20447;-76
2023/10/01 11:21:54;;;;;;;16.00;6.10;;;26.50;63.70;;;;;;5020469;28;20459;-76
2023/10/01 11:24:29;;;;;;;17.20;6.67;;;26.50;63.30;;;;;;5016405;28;20536;-78
2023/10/01 11:27:22;;;;;;;15.50;5.67;;;26.50;63.00;;;;;;5014544;28;20478;-77
2023/10/01 11:29:58;;;;;;;10.27;5.67;;;26.50;63.30;;;;;;5016805;28;20464;-78
2023/10/01 11:33:03;;;;;;;8.73;5.20;;;26.50;63.20;;;;;;5014677;28;20560;-77
2023/10/01 11:35:34;;;;;;;15.17;6.13;;;26.60;62.90;;;;;;4971098;28;20452;-76
2023/10/01 11:38:10;;;;;;;13.97;5.93;;;26.60;62.80;;;;;;4995106;28;20436;-76
2023/10/01 11:43:27;;;;;;;8.63;5.20;;;26.60;62.90;;;;;;5007585;28;20444;-76
2023/10/01 11:46:23;;;;;;;9.23;5.07;;;26.60;62.70;;;;;;5013160;28;20411;-76
2023/10/01 11:49:03;;;;;;;12.73;5.30;;;26.60;62.70;;;;;;5008355;28;20923;-76
2023/10/01 11:51:43;;;;;;;10.53;6.13;;;26.70;62.60;;;;;;4998844;28;20459;-76
2023/10/01 11:54:15;;;;;;;11.13;5.63;;;26.70;62.10;;;;;;4993418;28;20412;-76
2023/10/01 11:56:45;;;;;;;11.93;5.70;;;26.80;62.30;;;;;;5009548;28;20411;-76
2023/10/01 11:59:20;;;;;;;9.83;5.30;;;26.90;62.10;;;;;;5004858;28;20546;-76
2023/10/01 12:01:49;;;;;;;8.80;5.10;;;27.10;62.20;;;;;;4996792;28;20531;-75
2023/10/01 12:04:24;;;;;;;10.87;5.10;;;27.70;61.70;;;;;;5012019;28;20509;-76
2023/10/01 12:06:55;;;;;;;5.07;4.20;;;28.30;60.20;;;;;;5012137;28;20518;-76
2023/10/01 12:09:24;;;;;;;6.77;4.27;;;28.80;58.60;;;;;;4998893;28;20564;-77
2023/10/01 12:12:06;;;;;;;10.20;5.20;;;29.20;56.90;;;;;;5010289;28;20458;-76
2023/10/01 12:14:52;;;;;;;9.70;4.97;;;29.20;55.70;;;;;;5012051;28;20423;-76
2023/10/01 12:17:23;;;;;;;7.10;4.97;;;29.00;56.40;;;;;;5004993;28;20415;-76
2023/10/01 12:19:53;;;;;;;21.17;5.40;;;28.90;56.10;;;;;;5010265;28;20461;-77
2023/10/01 12:22:28;;;;;;;8.57;5.10;;;29.00;56.60;;;;;;5011908;28;20472;-76
2023/10/01 12:25:00;;;;;;;5.43;4.27;;;29.20;55.70;;;;;;5012547;28;20430;-76
2023/10/01 12:27:40;;;;;;;9.00;5.00;;;29.20;55.20;;;;;;5007116;28;20546;-76
2023/10/01 12:30:27;;;;;;;8.80;4.50;;;29.20;54.90;;;;;;5011914;28;20462;-76
2023/10/01 12:33:02;;;;;;;5.90;4.70;;;29.10;54.90;;;;;;5011264;28;20475;-76
2023/10/01 12:35:32;;;;;;;6.70;4.60;;;28.90;55.30;;;;;;5006967;28;20780;-77
2023/10/01 12:38:22;;;;;;;7.73;4.80;;;28.80;55.60;;;;;;5005654;28;20429;-77
2023/10/01 12:40:54;;;;;;;5.47;4.00;;;28.60;55.70;;;;;;4996229;28;20447;-77
2023/10/01 12:43:39;;;;;;;7.40;4.97;;;28.50;56.10;;;;;;5009016;28;20487;-76
2023/10/01 12:46:08;;;;;;;12.70;4.77;;;28.30;56.10;;;;;;5001950;28;20532;-76
2023/10/01 12:48:57;;;;;;;9.80;4.93;;;28.30;56.70;;;;;;4999124;28;20446;-75
2023/10/01 12:51:33;;;;;;;8.10;4.83;;;28.20;56.60;;;;;;5005309;28;20424;-75
2023/10/01 12:54:06;;;;;;;6.07;4.50;;;28.10;56.80;;;;;;5009946;28;20421;-76
2023/10/01 12:56:44;;;;;;;6.00;4.73;;;28.00;57.20;;;;;;5014746;28;20411;-76
2023/10/01 12:59:18;;;;;;;8.20;4.67;;;28.00;56.80;;;;;;5009021;28;20520;-76
2023/10/01 13:01:50;;;;;;;11.60;5.10;;;27.90;56.90;;;;;;5011904;28;20427;-76
2023/10/01 13:04:22;;;;;;;9.57;5.20;;;27.80;57.00;;;;;;4999914;28;20423;-76
2023/10/01 13:06:50;;;;;;;10.20;4.63;;;27.70;57.30;;;;;;4992015;28;20473;-76
2023/10/01 13:12:13;;;;;;;10.20;5.03;;;27.60;57.60;;;;;;5011326;28;20471;-76
2023/10/01 13:14:41;;;;;;;5.30;4.57;;;27.50;57.80;;;;;;5008008;28;20543;-75
2023/10/01 13:17:19;;;;;;;8.60;4.77;;;27.50;58.00;;;;;;5001073;28;20448;-76
2023/10/01 13:19:48;;;;;;;6.37;4.80;;;27.50;58.10;;;;;;5008739;28;20447;-78
2023/10/01 13:22:18;;;;;;;7.93;4.50;;;27.50;58.10;;;;;;4992707;28;20415;-78
2023/10/01 13:24:53;;;;;;;11.83;5.70;;;27.50;58.00;;;;;;4992571;28;20447;-78
2023/10/01 13:27:22;;;;;;;6.37;4.93;;;27.50;58.20;;;;;;5001335;28;20441;-78
2023/10/01 13:30:14;;;;;;;7.47;5.00;;;27.40;58.00;;;;;;4992361;28;20489;-79